sensor_id;sensor_type;location;lat;lon;timestamp;P1;durP1;ratioP1;P2;durP2;ratioP2
17648;SDS011;8943;51.110;-4.158;2023-04-04T00:00:08;9.20;;;3.67;;
17648;SDS011;8943;51.110;-4.158;2023-04-04T00:02:37;11.63;;;3.60;;
17648;SDS011;8943;51.110;-4.158;2023-04-04T00:05:07;9.30;;;3.30;;
17648;SDS011;8943;51.110;-4.158;2023-04-04T00:07:35;7.40;;;3.57;;
17648;SDS011;8943;51.110;-4.158;2023-04-04T00:10:09;8.50;;;3.80;;
17648;SDS011;8943;51.110;-4.158;2023-04-04T00:12:39;10.20;;;4.10;;
17648;SDS011;8943;51.110;-4.158;2023-04-04T00:15:09;12.37;;;4.73;;
17648;SDS011;8943;51.110;-4.158;2023-04-04T00:17:38;6.00;;;3.60;;
17648;SDS011;8943;51.110;-4.158;2023-04-04T00:20:07;9.43;;;3.50;;
17648;SDS011;8943;51.110;-4.158;2023-04-04T00:22:38;8.03;;;4.43;;
17648;SDS011;8943;51.110;-4.158;2023-04-04T00:25:08;7.23;;;4.57;;
17648;SDS011;8943;51.110;-4.158;2023-04-04T00:27:36;8.67;;;4.90;;
17648;SDS011;8943;51.110;-4.158;2023-04-04T00:30:05;10.33;;;4.83;;
17648;SDS011;8943;51.110;-4.158;2023-04-04T00:32:36;8.57;;;4.77;;
17648;SDS011;8943;51.110;-4.158;2023-04-04T00:35:04;10.83;;;4.40;;
17648;SDS011;8943;51.110;-4.158;2023-04-04T00:37:33;3.67;;;3.00;;
17648;SDS011;8943;51.110;-4.158;2023-04-04T00:40:01;7.53;;;3.43;;
17648;SDS011;8943;51.110;-4.158;2023-04-04T00:42:33;4.10;;;2.70;;
17648;SDS011;8943;51.110;-4.158;2023-04-04T00:45:03;10.80;;;3.53;;
17648;SDS011;8943;51.110;-4.158;2023-04-04T00:47:33;10.50;;;3.97;;
17648;SDS011;8943;51.110;-4.158;2023-04-04T00:50:03;7.33;;;3.23;;
17648;SDS011;8943;51.110;-4.158;2023-04-04T00:52:33;11.37;;;3.67;;
17648;SDS011;8943;51.110;-4.158;2023-04-04T00:55:03;7.70;;;3.60;;
17648;SDS011;8943;51.110;-4.158;2023-04-04T00:57:35;7.80;;;3.20;;
17648;SDS011;8943;51.110;-4.158;2023-04-04T01:00:06;8.57;;;3.50;;
17648;SDS011;8943;51.110;-4.158;2023-04-04T01:02:51;5.83;;;3.50;;
17648;SDS011;8943;51.110;-4.158;2023-04-04T01:05:48;9.70;;;3.50;;
17648;SDS011;8943;51.110;-4.158;2023-04-04T01:08:22;7.47;;;3.60;;
17648;SDS011;8943;51.110;-4.158;2023-04-04T01:10:53;9.47;;;3.10;;
17648;SDS011;8943;51.110;-4.158;2023-04-04T01:13:25;8.50;;;3.33;;
17648;SDS011;8943;51.110;-4.158;2023-04-04T01:15:54;6.30;;;3.07;;
17648;SDS011;8943;51.110;-4.158;2023-04-04T01:18:24;7.30;;;3.63;;
17648;SDS011;8943;51.110;-4.158;2023-04-04T01:20:55;7.67;;;3.20;;
17648;SDS011;8943;51.110;-4.158;2023-04-04T01:23:31;6.50;;;3.67;;
17648;SDS011;8943;51.110;-4.158;2023-04-04T01:26:07;8.63;;;4.00;;
17648;SDS011;8943;51.110;-4.158;2023-04-04T01:28:36;7.67;;;3.63;;
17648;SDS011;8943;51.110;-4.158;2023-04-04T01:31:06;12.40;;;3.90;;
17648;SDS011;8943;51.110;-4.158;2023-04-04T01:33:53;8.73;;;3.90;;
17648;SDS011;8943;51.110;-4.158;2023-04-04T01:36:31;7.77;;;3.80;;
17648;SDS011;8943;51.110;-4.158;2023-04-04T01:39:17;11.03;;;4.23;;
17648;SDS011;8943;51.110;-4.158;2023-04-04T01:41:53;6.63;;;3.60;;
17648;SDS011;8943;51.110;-4.158;2023-04-04T01:44:27;7.47;;;3.33;;
17648;SDS011;8943;51.110;-4.158;2023-04-04T01:46:58;8.00;;;3.93;;
17648;SDS011;8943;51.110;-4.158;2023-04-04T01:49:28;7.87;;;3.50;;
17648;SDS011;8943;51.110;-4.158;2023-04-04T01:51:57;8.30;;;3.73;;
17648;SDS011;8943;51.110;-4.158;2023-04-04T01:54:27;15.83;;;3.90;;
17648;SDS011;8943;51.110;-4.158;2023-04-04T01:57:00;5.97;;;3.50;;
17648;SDS011;8943;51.110;-4.158;2023-04-04T01:59:34;9.97;;;3.90;;
17648;SDS011;8943;51.110;-4.158;2023-04-04T02:02:03;7.43;;;3.87;;
17648;SDS011;8943;51.110;-4.158;2023-04-04T02:04:40;7.57;;;3.67;;
17648;SDS011;8943;51.110;-4.158;2023-04-04T02:07:16;11.50;;;4.23;;
17648;SDS011;8943;51.110;-4.158;2023-04-04T02:09:54;7.67;;;3.93;;
17648;SDS011;8943;51.110;-4.158;2023-04-04T02:12:26;9.13;;;3.97;;
17648;SDS011;8943;51.110;-4.158;2023-04-04T02:14:57;13.50;;;5.57;;
17648;SDS011;8943;51.110;-4.158;2023-04-04T02:17:27;8.47;;;5.47;;
17648;SDS011;8943;51.110;-4.158;2023-04-04T02:19:58;17.47;;;5.97;;
17648;SDS011;8943;51.110;-4.158;2023-04-04T02:22:33;11.57;;;5.57;;
17648;SDS011;8943;51.110;-4.158;2023-04-04T02:25:42;11.93;;;5.60;;
17648;SDS011;8943;51.110;-4.158;2023-04-04T02:39:49;12.10;;;5.53;;
17648;SDS011;8943;51.110;-4.158;2023-04-04T02:42:18;9.57;;;5.20;;
17648;SDS011;8943;51.110;-4.158;2023-04-04T02:44:58;15.17;;;5.10;;
17648;SDS011;8943;51.110;-4.158;2023-04-04T02:47:30;9.80;;;5.60;;
17648;SDS011;8943;51.110;-4.158;2023-04-04T02:49:59;14.83;;;5.27;;
17648;SDS011;8943;51.110;-4.158;2023-04-04T02:52:29;9.23;;;5.67;;
17648;SDS011;8943;51.110;-4.158;2023-04-04T02:54:59;6.90;;;5.43;;
17648;SDS011;8943;51.110;-4.158;2023-04-04T02:57:29;7.73;;;4.70;;
17648;SDS011;8943;51.110;-4.158;2023-04-04T02:59:58;11.37;;;5.07;;
17648;SDS011;8943;51.110;-4.158;2023-04-04T03:02:28;10.77;;;4.40;;
17648;SDS011;8943;51.110;-4.158;2023-04-04T03:05:14;8.20;;;4.70;;
17648;SDS011;8943;51.110;-4.158;2023-04-04T03:07:54;10.50;;;5.37;;
17648;SDS011;8943;51.110;-4.158;2023-04-04T03:10:24;9.53;;;5.07;;
17648;SDS011;8943;51.110;-4.158;2023-04-04T03:12:55;8.07;;;5.50;;
17648;SDS011;8943;51.110;-4.158;2023-04-04T03:15:24;11.30;;;5.93;;
17648;SDS011;8943;51.110;-4.158;2023-04-04T03:17:56;10.63;;;5.13;;
17648;SDS011;8943;51.110;-4.158;2023-04-04T03:20:28;12.97;;;4.90;;
17648;SDS011;8943;51.110;-4.158;2023-04-04T03:22:59;12.30;;;5.43;;
17648;SDS011;8943;51.110;-4.158;2023-04-04T03:25:28;9.23;;;5.30;;
17648;SDS011;8943;51.110;-4.158;2023-04-04T03:27:56;11.17;;;5.30;;
17648;SDS011;8943;51.110;-4.158;2023-04-04T03:30:25;12.27;;;5.27;;
17648;SDS011;8943;51.110;-4.158;2023-04-04T03:32:54;8.87;;;5.47;;
17648;SDS011;8943;51.110;-4.158;2023-04-04T03:35:23;11.37;;;5.50;;
17648;SDS011;8943;51.110;-4.158;2023-04-04T03:37:51;9.83;;;5.77;;
17648;SDS011;8943;51.110;-4.158;2023-04-04T03:40:21;14.07;;;5.43;;
17648;SDS011;8943;51.110;-4.158;2023-04-04T03:42:49;13.50;;;6.23;;
17648;SDS011;8943;51.110;-4.158;2023-04-04T03:45:18;11.03;;;5.90;;
17648;SDS011;8943;51.110;-4.158;2023-04-04T03:47:48;12.40;;;6.30;;
17648;SDS011;8943;51.110;-4.158;2023-04-04T03:50:16;11.70;;;6.30;;
17648;SDS011;8943;51.110;-4.158;2023-04-04T03:52:45;10.50;;;6.30;;
17648;SDS011;8943;51.110;-4.158;2023-04-04T03:55:13;15.60;;;6.33;;
17648;SDS011;8943;51.110;-4.158;2023-04-04T03:57:44;10.90;;;6.50;;
17648;SDS011;8943;51.110;-4.158;2023-04-04T04:00:13;16.13;;;7.57;;
17648;SDS011;8943;51.110;-4.158;2023-04-04T04:02:42;12.67;;;6.70;;
17648;SDS011;8943;51.110;-4.158;2023-04-04T04:05:10;12.13;;;7.27;;
17648;SDS011;8943;51.110;-4.158;2023-04-04T04:07:41;15.77;;;7.50;;
17648;SDS011;8943;51.110;-4.158;2023-04-04T04:10:14;13.93;;;7.17;;
17648;SDS011;8943;51.110;-4.158;2023-04-04T04:12:46;10.97;;;7.57;;
17648;SDS011;8943;51.110;-4.158;2023-04-04T04:15:18;16.70;;;7.13;;
17648;SDS011;8943;51.110;-4.158;2023-04-04T04:17:47;12.23;;;7.10;;
17648;SDS011;8943;51.110;-4.158;2023-04-04T04:20:16;12.63;;;7.03;;
17648;SDS011;8943;51.110;-4.158;2023-04-04T04:22:55;14.60;;;7.60;;
17648;SDS011;8943;51.110;-4.158;2023-04-04T04:25:28;13.57;;;8.27;;
17648;SDS011;8943;51.110;-4.158;2023-04-04T04:28:15;10.40;;;7.50;;
17648;SDS011;8943;51.110;-4.158;2023-04-04T04:30:46;15.63;;;7.70;;
17648;SDS011;8943;51.110;-4.158;2023-04-04T04:33:15;10.57;;;7.90;;
17648;SDS011;8943;51.110;-4.158;2023-04-04T04:35:51;18.73;;;8.13;;
17648;SDS011;8943;51.110;-4.158;2023-04-04T04:38:36;18.93;;;8.00;;
17648;SDS011;8943;51.110;-4.158;2023-04-04T04:41:19;14.13;;;8.60;;
17648;SDS011;8943;51.110;-4.158;2023-04-04T04:43:49;16.97;;;7.70;;
17648;SDS011;8943;51.110;-4.158;2023-04-04T04:46:18;13.77;;;7.30;;
17648;SDS011;8943;51.110;-4.158;2023-04-04T04:48:46;15.83;;;7.67;;
17648;SDS011;8943;51.110;-4.158;2023-04-04T04:51:15;16.20;;;7.67;;
17648;SDS011;8943;51.110;-4.158;2023-04-04T04:53:43;12.47;;;7.60;;
17648;SDS011;8943;51.110;-4.158;2023-04-04T04:56:12;18.07;;;7.97;;
17648;SDS011;8943;51.110;-4.158;2023-04-04T04:58:42;9.47;;;7.30;;
17648;SDS011;8943;51.110;-4.158;2023-04-04T05:04:21;13.83;;;7.83;;
17648;SDS011;8943;51.110;-4.158;2023-04-04T05:06:50;13.33;;;7.30;;
17648;SDS011;8943;51.110;-4.158;2023-04-04T05:09:19;11.67;;;7.53;;
17648;SDS011;8943;51.110;-4.158;2023-04-04T05:11:49;13.77;;;8.10;;
17648;SDS011;8943;51.110;-4.158;2023-04-04T05:14:18;12.60;;;7.53;;
17648;SDS011;8943;51.110;-4.158;2023-04-04T05:16:48;13.87;;;8.23;;
17648;SDS011;8943;51.110;-4.158;2023-04-04T05:19:17;11.63;;;7.67;;
17648;SDS011;8943;51.110;-4.158;2023-04-04T05:21:48;12.83;;;8.10;;
17648;SDS011;8943;51.110;-4.158;2023-04-04T05:24:17;9.83;;;7.63;;
17648;SDS011;8943;51.110;-4.158;2023-04-04T05:26:54;11.07;;;7.27;;
17648;SDS011;8943;51.110;-4.158;2023-04-04T05:29:23;18.13;;;8.27;;
17648;SDS011;8943;51.110;-4.158;2023-04-04T05:31:52;18.77;;;8.33;;
17648;SDS011;8943;51.110;-4.158;2023-04-04T05:34:21;13.20;;;8.00;;
17648;SDS011;8943;51.110;-4.158;2023-04-04T05:36:59;13.23;;;8.00;;
17648;SDS011;8943;51.110;-4.158;2023-04-04T05:39:28;13.27;;;8.43;;
17648;SDS011;8943;51.110;-4.158;2023-04-04T05:42:02;15.33;;;8.47;;
17648;SDS011;8943;51.110;-4.158;2023-04-04T05:44:44;12.17;;;7.57;;
17648;SDS011;8943;51.110;-4.158;2023-04-04T05:47:15;13.23;;;7.77;;
17648;SDS011;8943;51.110;-4.158;2023-04-04T05:49:55;13.87;;;8.40;;
17648;SDS011;8943;51.110;-4.158;2023-04-04T05:55:58;13.73;;;8.23;;
17648;SDS011;8943;51.110;-4.158;2023-04-04T05:58:43;12.50;;;7.53;;
17648;SDS011;8943;51.110;-4.158;2023-04-04T06:01:17;20.10;;;8.30;;
17648;SDS011;8943;51.110;-4.158;2023-04-04T06:04:39;16.80;;;7.37;;
17648;SDS011;8943;51.110;-4.158;2023-04-04T06:07:27;12.43;;;7.30;;
17648;SDS011;8943;51.110;-4.158;2023-04-04T06:10:03;13.50;;;7.93;;
17648;SDS011;8943;51.110;-4.158;2023-04-04T06:12:49;13.03;;;8.00;;
17648;SDS011;8943;51.110;-4.158;2023-04-04T06:15:17;12.03;;;7.10;;
17648;SDS011;8943;51.110;-4.158;2023-04-04T06:17:59;15.03;;;7.90;;
17648;SDS011;8943;51.110;-4.158;2023-04-04T06:20:30;11.53;;;7.20;;
17648;SDS011;8943;51.110;-4.158;2023-04-04T06:22:59;11.00;;;6.87;;
17648;SDS011;8943;51.110;-4.158;2023-04-04T06:25:33;10.13;;;6.60;;
17648;SDS011;8943;51.110;-4.158;2023-04-04T06:28:05;11.60;;;7.17;;
17648;SDS011;8943;51.110;-4.158;2023-04-04T06:30:36;15.73;;;6.87;;
17648;SDS011;8943;51.110;-4.158;2023-04-04T06:33:06;14.33;;;7.27;;
17648;SDS011;8943;51.110;-4.158;2023-04-04T06:35:35;13.00;;;6.50;;
17648;SDS011;8943;51.110;-4.158;2023-04-04T06:38:05;11.53;;;6.33;;
17648;SDS011;8943;51.110;-4.158;2023-04-04T06:40:35;10.20;;;6.43;;
17648;SDS011;8943;51.110;-4.158;2023-04-04T06:43:06;9.87;;;6.30;;
17648;SDS011;8943;51.110;-4.158;2023-04-04T06:45:49;13.37;;;6.27;;
17648;SDS011;8943;51.110;-4.158;2023-04-04T06:48:22;11.40;;;6.13;;
17648;SDS011;8943;51.110;-4.158;2023-04-04T06:50:52;12.90;;;7.23;;
17648;SDS011;8943;51.110;-4.158;2023-04-04T06:53:23;12.07;;;6.77;;
17648;SDS011;8943;51.110;-4.158;2023-04-04T06:55:53;11.00;;;6.80;;
17648;SDS011;8943;51.110;-4.158;2023-04-04T06:58:25;13.03;;;6.30;;
17648;SDS011;8943;51.110;-4.158;2023-04-04T07:01:00;15.93;;;6.40;;
17648;SDS011;8943;51.110;-4.158;2023-04-04T07:03:32;11.27;;;6.27;;
17648;SDS011;8943;51.110;-4.158;2023-04-04T07:06:01;11.30;;;6.60;;
17648;SDS011;8943;51.110;-4.158;2023-04-04T07:08:39;11.63;;;6.63;;
17648;SDS011;8943;51.110;-4.158;2023-04-04T07:11:09;10.43;;;6.00;;
17648;SDS011;8943;51.110;-4.158;2023-04-04T07:13:39;17.00;;;6.87;;
17648;SDS011;8943;51.110;-4.158;2023-04-04T07:16:09;15.83;;;6.47;;
17648;SDS011;8943;51.110;-4.158;2023-04-04T07:18:38;12.60;;;6.13;;
17648;SDS011;8943;51.110;-4.158;2023-04-04T07:21:06;12.80;;;6.87;;
17648;SDS011;8943;51.110;-4.158;2023-04-04T07:23:35;13.47;;;6.80;;
17648;SDS011;8943;51.110;-4.158;2023-04-04T07:26:03;13.30;;;6.47;;
17648;SDS011;8943;51.110;-4.158;2023-04-04T07:28:32;11.73;;;5.83;;
17648;SDS011;8943;51.110;-4.158;2023-04-04T07:31:02;12.80;;;6.40;;
17648;SDS011;8943;51.110;-4.158;2023-04-04T07:33:30;11.40;;;6.10;;
17648;SDS011;8943;51.110;-4.158;2023-04-04T07:35:59;11.37;;;6.40;;
17648;SDS011;8943;51.110;-4.158;2023-04-04T07:38:28;14.03;;;6.40;;
17648;SDS011;8943;51.110;-4.158;2023-04-04T07:40:56;14.23;;;6.13;;
17648;SDS011;8943;51.110;-4.158;2023-04-04T07:43:24;16.97;;;6.23;;
17648;SDS011;8943;51.110;-4.158;2023-04-04T07:45:53;9.13;;;6.10;;
17648;SDS011;8943;51.110;-4.158;2023-04-04T07:48:23;10.97;;;6.20;;
17648;SDS011;8943;51.110;-4.158;2023-04-04T07:50:52;15.30;;;6.83;;
17648;SDS011;8943;51.110;-4.158;2023-04-04T07:53:20;10.53;;;5.97;;
17648;SDS011;8943;51.110;-4.158;2023-04-04T07:55:49;11.63;;;6.00;;
17648;SDS011;8943;51.110;-4.158;2023-04-04T07:58:19;15.20;;;6.60;;
17648;SDS011;8943;51.110;-4.158;2023-04-04T08:00:48;16.63;;;6.87;;
17648;SDS011;8943;51.110;-4.158;2023-04-04T08:03:16;10.73;;;6.57;;
17648;SDS011;8943;51.110;-4.158;2023-04-04T08:05:47;13.70;;;6.83;;
17648;SDS011;8943;51.110;-4.158;2023-04-04T08:08:17;14.03;;;7.00;;
17648;SDS011;8943;51.110;-4.158;2023-04-04T08:11:13;12.67;;;6.47;;
17648;SDS011;8943;51.110;-4.158;2023-04-04T08:14:08;12.33;;;6.30;;
17648;SDS011;8943;51.110;-4.158;2023-04-04T08:16:38;10.23;;;6.13;;
17648;SDS011;8943;51.110;-4.158;2023-04-04T08:19:07;11.70;;;6.47;;
17648;SDS011;8943;51.110;-4.158;2023-04-04T08:21:37;12.23;;;6.50;;
17648;SDS011;8943;51.110;-4.158;2023-04-04T08:24:05;13.43;;;6.43;;
17648;SDS011;8943;51.110;-4.158;2023-04-04T08:26:34;13.50;;;6.63;;
17648;SDS011;8943;51.110;-4.158;2023-04-04T08:29:03;10.67;;;6.03;;
17648;SDS011;8943;51.110;-4.158;2023-04-04T08:31:32;10.67;;;6.50;;
17648;SDS011;8943;51.110;-4.158;2023-04-04T08:34:00;10.90;;;6.17;;
17648;SDS011;8943;51.110;-4.158;2023-04-04T08:36:30;11.50;;;6.33;;
17648;SDS011;8943;51.110;-4.158;2023-04-04T08:39:00;11.83;;;6.37;;
17648;SDS011;8943;51.110;-4.158;2023-04-04T08:41:29;13.60;;;6.67;;
17648;SDS011;8943;51.110;-4.158;2023-04-04T08:44:01;14.73;;;5.93;;
17648;SDS011;8943;51.110;-4.158;2023-04-04T08:46:31;13.80;;;6.20;;
17648;SDS011;8943;51.110;-4.158;2023-04-04T08:49:00;9.93;;;5.80;;
17648;SDS011;8943;51.110;-4.158;2023-04-04T08:51:30;15.03;;;5.80;;
17648;SDS011;8943;51.110;-4.158;2023-04-04T08:54:01;15.03;;;6.57;;
17648;SDS011;8943;51.110;-4.158;2023-04-04T08:56:30;11.17;;;5.57;;
17648;SDS011;8943;51.110;-4.158;2023-04-04T08:59:00;10.47;;;5.30;;
17648;SDS011;8943;51.110;-4.158;2023-04-04T09:01:29;10.27;;;5.50;;
17648;SDS011;8943;51.110;-4.158;2023-04-04T09:03:59;10.33;;;5.30;;
17648;SDS011;8943;51.110;-4.158;2023-04-04T09:06:28;13.70;;;5.90;;
17648;SDS011;8943;51.110;-4.158;2023-04-04T09:08:57;11.33;;;6.10;;
17648;SDS011;8943;51.110;-4.158;2023-04-04T09:11:28;11.33;;;5.70;;
17648;SDS011;8943;51.110;-4.158;2023-04-04T09:13:58;14.47;;;5.80;;
17648;SDS011;8943;51.110;-4.158;2023-04-04T09:16:29;16.00;;;6.10;;
17648;SDS011;8943;51.110;-4.158;2023-04-04T09:18:58;16.77;;;7.30;;
17648;SDS011;8943;51.110;-4.158;2023-04-04T09:21:26;12.33;;;5.67;;
17648;SDS011;8943;51.110;-4.158;2023-04-04T09:23:58;14.40;;;6.00;;
17648;SDS011;8943;51.110;-4.158;2023-04-04T09:26:26;10.00;;;6.50;;
17648;SDS011;8943;51.110;-4.158;2023-04-04T09:28:56;17.10;;;6.73;;
17648;SDS011;8943;51.110;-4.158;2023-04-04T09:31:24;14.17;;;5.60;;
17648;SDS011;8943;51.110;-4.158;2023-04-04T09:33:52;13.20;;;5.90;;
17648;SDS011;8943;51.110;-4.158;2023-04-04T09:36:21;12.00;;;5.80;;
17648;SDS011;8943;51.110;-4.158;2023-04-04T09:38:50;14.43;;;6.00;;
17648;SDS011;8943;51.110;-4.158;2023-04-04T09:41:20;9.03;;;5.80;;
17648;SDS011;8943;51.110;-4.158;2023-04-04T09:43:48;15.07;;;6.10;;
17648;SDS011;8943;51.110;-4.158;2023-04-04T09:46:19;11.27;;;5.90;;
17648;SDS011;8943;51.110;-4.158;2023-04-04T09:48:48;13.03;;;5.40;;
17648;SDS011;8943;51.110;-4.158;2023-04-04T09:51:16;14.03;;;5.57;;
17648;SDS011;8943;51.110;-4.158;2023-04-04T09:53:46;15.93;;;5.57;;
17648;SDS011;8943;51.110;-4.158;2023-04-04T09:56:15;13.87;;;5.43;;
17648;SDS011;8943;51.110;-4.158;2023-04-04T09:58:51;10.87;;;5.10;;
17648;SDS011;8943;51.110;-4.158;2023-04-04T10:01:30;11.77;;;5.17;;
17648;SDS011;8943;51.110;-4.158;2023-04-04T10:04:00;11.90;;;5.60;;
17648;SDS011;8943;51.110;-4.158;2023-04-04T10:06:30;12.57;;;5.60;;
17648;SDS011;8943;51.110;-4.158;2023-04-04T10:08:58;10.80;;;5.97;;
17648;SDS011;8943;51.110;-4.158;2023-04-04T10:11:29;13.77;;;6.27;;
17648;SDS011;8943;51.110;-4.158;2023-04-04T10:13:59;7.03;;;4.80;;
17648;SDS011;8943;51.110;-4.158;2023-04-04T10:16:31;10.00;;;5.87;;
17648;SDS011;8943;51.110;-4.158;2023-04-04T10:19:04;13.17;;;5.60;;
17648;SDS011;8943;51.110;-4.158;2023-04-04T10:21:34;10.60;;;5.07;;
17648;SDS011;8943;51.110;-4.158;2023-04-04T10:24:02;9.13;;;5.53;;
17648;SDS011;8943;51.110;-4.158;2023-04-04T10:26:35;13.93;;;5.40;;
17648;SDS011;8943;51.110;-4.158;2023-04-04T10:29:03;15.00;;;5.30;;
17648;SDS011;8943;51.110;-4.158;2023-04-04T10:31:34;9.93;;;5.77;;
17648;SDS011;8943;51.110;-4.158;2023-04-04T10:34:09;9.60;;;4.60;;
17648;SDS011;8943;51.110;-4.158;2023-04-04T10:36:43;14.07;;;5.20;;
17648;SDS011;8943;51.110;-4.158;2023-04-04T10:39:13;9.97;;;5.33;;
17648;SDS011;8943;51.110;-4.158;2023-04-04T10:41:45;11.93;;;5.07;;
17648;SDS011;8943;51.110;-4.158;2023-04-04T10:44:19;10.23;;;5.17;;
17648;SDS011;8943;51.110;-4.158;2023-04-04T10:46:56;11.70;;;5.20;;
17648;SDS011;8943;51.110;-4.158;2023-04-04T10:49:41;9.17;;;4.93;;
17648;SDS011;8943;51.110;-4.158;2023-04-04T10:52:11;8.63;;;4.70;;
17648;SDS011;8943;51.110;-4.158;2023-04-04T10:54:42;9.70;;;5.17;;
17648;SDS011;8943;51.110;-4.158;2023-04-04T10:57:12;10.23;;;4.87;;
17648;SDS011;8943;51.110;-4.158;2023-04-04T10:59:54;9.97;;;4.70;;
17648;SDS011;8943;51.110;-4.158;2023-04-04T11:02:44;13.23;;;5.67;;
17648;SDS011;8943;51.110;-4.158;2023-04-04T11:05:21;10.87;;;4.30;;
17648;SDS011;8943;51.110;-4.158;2023-04-04T11:07:55;7.50;;;4.60;;
17648;SDS011;8943;51.110;-4.158;2023-04-04T11:10:35;9.83;;;4.60;;
17648;SDS011;8943;51.110;-4.158;2023-04-04T11:13:07;10.13;;;4.37;;
17648;SDS011;8943;51.110;-4.158;2023-04-04T11:15:50;12.10;;;4.23;;
17648;SDS011;8943;51.110;-4.158;2023-04-04T11:18:22;8.60;;;4.17;;
17648;SDS011;8943;51.110;-4.158;2023-04-04T11:21:15;7.37;;;3.90;;
17648;SDS011;8943;51.110;-4.158;2023-04-04T11:26:42;8.00;;;4.00;;
17648;SDS011;8943;51.110;-4.158;2023-04-04T11:29:18;8.10;;;3.80;;
17648;SDS011;8943;51.110;-4.158;2023-04-04T11:31:49;7.97;;;3.80;;
17648;SDS011;8943;51.110;-4.158;2023-04-04T11:34:32;12.07;;;3.77;;
17648;SDS011;8943;51.110;-4.158;2023-04-04T11:37:13;7.87;;;4.17;;
17648;SDS011;8943;51.110;-4.158;2023-04-04T11:39:46;8.23;;;3.90;;
17648;SDS011;8943;51.110;-4.158;2023-04-04T11:42:21;8.23;;;3.67;;
17648;SDS011;8943;51.110;-4.158;2023-04-04T11:45:03;12.40;;;4.37;;
17648;SDS011;8943;51.110;-4.158;2023-04-04T11:47:33;10.83;;;4.13;;
17648;SDS011;8943;51.110;-4.158;2023-04-04T11:50:07;8.13;;;3.97;;
17648;SDS011;8943;51.110;-4.158;2023-04-04T11:52:36;9.10;;;4.00;;
17648;SDS011;8943;51.110;-4.158;2023-04-04T11:55:13;6.83;;;3.80;;
17648;SDS011;8943;51.110;-4.158;2023-04-04T11:57:42;5.77;;;3.77;;
17648;SDS011;8943;51.110;-4.158;2023-04-04T12:00:11;7.70;;;3.70;;
17648;SDS011;8943;51.110;-4.158;2023-04-04T12:02:54;9.90;;;4.27;;
17648;SDS011;8943;51.110;-4.158;2023-04-04T12:05:24;17.83;;;4.53;;
17648;SDS011;8943;51.110;-4.158;2023-04-04T12:07:54;8.77;;;3.97;;
17648;SDS011;8943;51.110;-4.158;2023-04-04T12:10:22;9.33;;;3.90;;
17648;SDS011;8943;51.110;-4.158;2023-04-04T12:12:53;7.17;;;3.83;;
17648;SDS011;8943;51.110;-4.158;2023-04-04T12:15:22;7.40;;;4.10;;
17648;SDS011;8943;51.110;-4.158;2023-04-04T12:17:51;12.67;;;3.97;;
17648;SDS011;8943;51.110;-4.158;2023-04-04T12:20:20;8.33;;;3.70;;
17648;SDS011;8943;51.110;-4.158;2023-04-04T12:22:51;7.13;;;3.60;;
17648;SDS011;8943;51.110;-4.158;2023-04-04T12:25:20;7.67;;;4.10;;
17648;SDS011;8943;51.110;-4.158;2023-04-04T12:27:50;12.53;;;4.00;;
17648;SDS011;8943;51.110;-4.158;2023-04-04T12:30:19;7.33;;;3.67;;
17648;SDS011;8943;51.110;-4.158;2023-04-04T12:32:48;9.13;;;3.80;;
17648;SDS011;8943;51.110;-4.158;2023-04-04T12:35:17;11.80;;;4.27;;
17648;SDS011;8943;51.110;-4.158;2023-04-04T12:38:01;7.97;;;3.70;;
17648;SDS011;8943;51.110;-4.158;2023-04-04T12:40:33;8.70;;;3.50;;
17648;SDS011;8943;51.110;-4.158;2023-04-04T12:43:04;8.87;;;3.70;;
17648;SDS011;8943;51.110;-4.158;2023-04-04T12:45:37;9.77;;;3.83;;
17648;SDS011;8943;51.110;-4.158;2023-04-04T12:48:08;8.50;;;3.80;;
17648;SDS011;8943;51.110;-4.158;2023-04-04T12:50:49;10.47;;;4.13;;
17648;SDS011;8943;51.110;-4.158;2023-04-04T12:53:20;9.97;;;4.17;;
17648;SDS011;8943;51.110;-4.158;2023-04-04T12:55:55;8.07;;;3.73;;
17648;SDS011;8943;51.110;-4.158;2023-04-04T12:58:28;11.80;;;4.00;;
17648;SDS011;8943;51.110;-4.158;2023-04-04T13:01:01;7.57;;;4.13;;
17648;SDS011;8943;51.110;-4.158;2023-04-04T13:03:30;10.00;;;4.00;;
17648;SDS011;8943;51.110;-4.158;2023-04-04T13:06:00;8.40;;;4.33;;
17648;SDS011;8943;51.110;-4.158;2023-04-04T13:08:30;15.50;;;4.73;;
17648;SDS011;8943;51.110;-4.158;2023-04-04T13:11:00;13.90;;;4.07;;
17648;SDS011;8943;51.110;-4.158;2023-04-04T13:13:32;9.23;;;3.87;;
17648;SDS011;8943;51.110;-4.158;2023-04-04T13:16:01;8.10;;;4.50;;
17648;SDS011;8943;51.110;-4.158;2023-04-04T13:18:31;7.20;;;3.93;;
17648;SDS011;8943;51.110;-4.158;2023-04-04T13:21:03;6.87;;;3.53;;
17648;SDS011;8943;51.110;-4.158;2023-04-04T13:23:34;10.57;;;4.17;;
17648;SDS011;8943;51.110;-4.158;2023-04-04T13:26:05;8.40;;;4.23;;
17648;SDS011;8943;51.110;-4.158;2023-04-04T13:28:36;9.30;;;4.30;;
17648;SDS011;8943;51.110;-4.158;2023-04-04T13:31:05;11.30;;;4.40;;
17648;SDS011;8943;51.110;-4.158;2023-04-04T13:33:35;9.30;;;3.80;;
17648;SDS011;8943;51.110;-4.158;2023-04-04T13:36:04;10.73;;;4.00;;
17648;SDS011;8943;51.110;-4.158;2023-04-04T13:38:34;9.60;;;4.23;;
17648;SDS011;8943;51.110;-4.158;2023-04-04T13:41:02;9.07;;;4.03;;
17648;SDS011;8943;51.110;-4.158;2023-04-04T13:43:30;10.47;;;3.63;;
17648;SDS011;8943;51.110;-4.158;2023-04-04T13:45:58;10.13;;;3.93;;
17648;SDS011;8943;51.110;-4.158;2023-04-04T13:48:26;7.47;;;4.00;;
17648;SDS011;8943;51.110;-4.158;2023-04-04T13:50:56;9.67;;;3.77;;
17648;SDS011;8943;51.110;-4.158;2023-04-04T13:53:24;8.70;;;3.80;;
17648;SDS011;8943;51.110;-4.158;2023-04-04T13:55:54;12.13;;;3.40;;
17648;SDS011;8943;51.110;-4.158;2023-04-04T13:58:42;10.23;;;4.57;;
17648;SDS011;8943;51.110;-4.158;2023-04-04T14:01:10;7.70;;;4.13;;
17648;SDS011;8943;51.110;-4.158;2023-04-04T14:03:38;7.93;;;4.27;;
17648;SDS011;8943;51.110;-4.158;2023-04-04T14:06:07;8.10;;;3.50;;
17648;SDS011;8943;51.110;-4.158;2023-04-04T14:08:36;7.80;;;4.07;;
17648;SDS011;8943;51.110;-4.158;2023-04-04T14:11:06;9.17;;;3.60;;
17648;SDS011;8943;51.110;-4.158;2023-04-04T14:13:35;6.57;;;3.57;;
17648;SDS011;8943;51.110;-4.158;2023-04-04T14:16:07;8.97;;;3.33;;
17648;SDS011;8943;51.110;-4.158;2023-04-04T14:18:36;10.53;;;3.67;;
17648;SDS011;8943;51.110;-4.158;2023-04-04T14:21:04;13.07;;;4.47;;
17648;SDS011;8943;51.110;-4.158;2023-04-04T14:23:33;12.37;;;4.13;;
17648;SDS011;8943;51.110;-4.158;2023-04-04T14:26:02;11.07;;;4.10;;
17648;SDS011;8943;51.110;-4.158;2023-04-04T14:28:32;8.75;;;3.83;;
17648;SDS011;8943;51.110;-4.158;2023-04-04T14:31:00;6.68;;;3.50;;
17648;SDS011;8943;51.110;-4.158;2023-04-04T14:33:31;7.35;;;3.45;;
17648;SDS011;8943;51.110;-4.158;2023-04-04T14:36:00;9.23;;;3.92;;
17648;SDS011;8943;51.110;-4.158;2023-04-04T14:38:29;6.40;;;3.17;;
17648;SDS011;8943;51.110;-4.158;2023-04-04T14:40:59;12.77;;;3.80;;
17648;SDS011;8943;51.110;-4.158;2023-04-04T14:43:28;8.57;;;3.03;;
17648;SDS011;8943;51.110;-4.158;2023-04-04T14:46:01;7.20;;;3.22;;
17648;SDS011;8943;51.110;-4.158;2023-04-04T14:48:30;7.13;;;3.20;;
17648;SDS011;8943;51.110;-4.158;2023-04-04T14:51:01;9.25;;;3.60;;
17648;SDS011;8943;51.110;-4.158;2023-04-04T14:53:29;6.93;;;3.22;;
17648;SDS011;8943;51.110;-4.158;2023-04-04T14:55:57;8.63;;;3.97;;
17648;SDS011;8943;51.110;-4.158;2023-04-04T14:58:26;9.30;;;3.97;;
17648;SDS011;8943;51.110;-4.158;2023-04-04T15:00:54;9.87;;;4.07;;
17648;SDS011;8943;51.110;-4.158;2023-04-04T15:03:28;11.17;;;4.47;;
17648;SDS011;8943;51.110;-4.158;2023-04-04T15:06:00;12.60;;;4.50;;
17648;SDS011;8943;51.110;-4.158;2023-04-04T15:08:28;10.23;;;4.30;;
17648;SDS011;8943;51.110;-4.158;2023-04-04T15:10:57;9.80;;;4.83;;
17648;SDS011;8943;51.110;-4.158;2023-04-04T15:13:27;10.53;;;4.27;;
17648;SDS011;8943;51.110;-4.158;2023-04-04T15:15:55;12.93;;;4.90;;
17648;SDS011;8943;51.110;-4.158;2023-04-04T15:18:25;9.93;;;5.50;;
17648;SDS011;8943;51.110;-4.158;2023-04-04T15:20:57;12.73;;;5.40;;
17648;SDS011;8943;51.110;-4.158;2023-04-04T15:23:25;8.50;;;4.10;;
17648;SDS011;8943;51.110;-4.158;2023-04-04T15:25:53;10.07;;;4.53;;
17648;SDS011;8943;51.110;-4.158;2023-04-04T15:28:22;10.07;;;4.00;;